Scottsbluff, NE

1:01 AM MST on December 29, 2014 (GMT -0700)
Heilig | Change Station
CLOSE
Current Station
Airport
Location: Scottsbluff,
Elevation: 3957 ft
Nearby Weather Stations

Elev 3957 ft 41.87 °N, 103.60 °W | Updated 8 minutes ago

Overcast
Overcast
19 °F
Feels Like 7 °F
N
12
Wind Variable Wind from NNE

Today
High -- | Low -- °F
--% Chance of Precip.
Yesterday
High -- | Low -- °F
Precip. -- in
7:21 AM 4:31 PM
First Quarter, 56% visible
Pressure 30.16 in
Visibility 1.8 miles
Clouds Overcast 2100 ft
Windchill 7 °F
Dew Point 15 °F
Humidity 85%
Rainfall 0.00 in
Snow Depth Not available.
UV 0 out of 12
Pollen .10 out of 12
Air Quality Not available.
Flu Activity Not available.
METAR KBFF 290753Z AUTO 02010KT 1 3/4SM -SN BR OVC021 M07/M09 A3005 RMK AO2 SNB38 SLP212 P0000 T10721094

More Conditions Fewer Conditions

Pressure 30.16 in
Visibility 1.8 miles
Clouds Overcast 2100 ft
Windchill 7 °F
Dew Point 15 °F
Humidity 85%
Rainfall 0.00 in
Snow Depth Not available.
UV 0 out of 12
Pollen .10 out of 12
Air Quality Not available.
Flu Activity Not available.
METAR KBFF 290753Z AUTO 02010KT 1 3/4SM -SN BR OVC021 M07/M09 A3005 RMK AO2 SNB38 SLP212 P0000 T10721094

More Conditions Fewer Conditions

10-Day Weather Forecast

Almanac

Astronomy

Dec. 29, 2014 Rise Set
Actual Time
Civil Twilight
Nautical Twilight
Astronomical Twilight
Moon
Length of Visible Light
Length of Day
Tomorrow will be .
, % of the Moon is Illuminated

Today's Extremes

State Highs State Lows

Community

WunderPhotos

Upload Photos

1,781,547 photos uploaded!

WunderBlogs® & News

Nearby

Air Quality

  Air Quality AQ Index Pollutant
Not available.

Snow Depth

Station Depth Elevation

Earthquake Activity

City Distance Mag. Time & Date
Minimum magnitude displayed is 2.5.

Coastal Water Temperatures

Place Temperature

Nearby Weather Stations